Trout Creek, MI (49967)

4:53 PM EDT on September 22, 2014 (GMT -0400)
RAWS KENTON MI US | Change Station
CLOSE
Current Station
Personal Weather Station
Location: Nisula, MI
Elevation: 1262 ft
Nearby Weather Stations

Elev 1262 ft 46.61 °N, 88.91 °W | Updated 57 minutes ago

Clear
Clear
69 °F
Feels Like 69 °F
N
3
Wind Variable Wind from WNW
Gusts 6.0 mph

Today
High -- | Low -- °F
--% Chance of Precip.
Yesterday
High -- | Low -- °F
Precip. -- in
7:43 AM 7:53 PM
Waning Crescent, 2% visible
Pressure 30.15 in
Visibility 10.0 miles
Clouds Clear
Dew Point 48 °F
Humidity 48%
Rainfall 0.00 in
Snow Depth Not available.
UV 3 out of 12
Pollen 3.20 out of 12
Air Quality Not available.
Flu Activity Not available.
METAR KLNL 222035Z AUTO 27006KT 10SM CLR 19/08 A3015 RMK AO2 T01890077

More Conditions Fewer Conditions

Pressure 30.15 in
Visibility 10.0 miles
Clouds Clear
Dew Point 48 °F
Humidity 48%
Rainfall 0.00 in
Snow Depth Not available.
UV 3 out of 12
Pollen 3.20 out of 12
Air Quality Not available.
Flu Activity Not available.
METAR KLNL 222035Z AUTO 27006KT 10SM CLR 19/08 A3015 RMK AO2 T01890077

More Conditions Fewer Conditions

10-Day Weather Forecast

Almanac

Astronomy

Sep. 22, 2014 Rise Set
Actual Time 7:43 AM EDT 7:53 PM EDT
Civil Twilight 7:13 AM EDT 8:23 PM EDT
Nautical Twilight 6:37 AM EDT 8:59 PM EDT
Astronomical Twilight 6:01 AM EDT 9:35 PM EDT
Moon 6:07 AM EDT 7:03 PM EDT
Length of Visible Light 13h 10m
Length of Day
12h 10m
Tomorrow will be 3m 16s shorter.
Waning Crescent, 2% of the Moon is Illuminated
Today
Waning Crescent
Sep 24
New
Oct 1
First Quarter
Oct 8
Full
Oct 15
Last Quarter

Today's Extremes

State Highs State Lows

Community

WunderPhotos

Upload Photos

1,755,522 photos uploaded!

WunderBlogs® & News

Nearby

Snow Depth

Station Depth Elevation
No new snow has been reported.

Earthquake Activity

City Distance Mag. Time & Date
No recent earthquake activity has been reported nearby.
Minimum magnitude displayed is 2.5.

Coastal Water Temperatures

Place Temperature
No Stations Reporting

Nearby Weather Stations